Time;durP1;ratioP1;P1;durP2;ratioP2;P2;SDS_P1;SDS_P2;PMS_P1;PMS_P2;Temp;Humidity;BMP_temperature;BMP_pressure;BME280_temperature;BME280_humidity;BME280_pressure;Samples;Min_cycle;Max_cycle;Signal;HPM_P1;HPM_P2
2022/06/13 00:00:34;;;;;;;13.93;6.75;;;;;;;;;;4830506;29;20078;-71
2022/06/13 00:03:04;;;;;;;15.18;7.28;;;;;;;;;;4865250;29;20057;-71
2022/06/13 00:05:36;;;;;;;16.98;7.95;;;;;;;;;;4875970;29;20049;-70
2022/06/13 00:08:06;;;;;;;18.50;10.45;;;;;;;;;;4877630;29;21974;-69
2022/06/13 00:10:37;;;;;;;17.40;8.43;;;;;;;;;;4850638;29;20057;-71
2022/06/13 00:13:07;;;;;;;21.25;8.15;;;;;;;;;;4862080;29;20061;-69
2022/06/13 00:15:38;;;;;;;21.13;7.82;;;;;;;;;;4822007;29;20495;-69
2022/06/13 00:18:08;;;;;;;19.42;7.70;;;;;;;;;;4807167;29;20495;-69
2022/06/13 00:20:38;;;;;;;18.08;8.18;;;;;;;;;;4791777;29;20050;-68
2022/06/13 00:23:09;;;;;;;18.40;8.13;;;;;;;;;;4807752;29;20142;-70
2022/06/13 00:25:40;;;;;;;14.05;6.88;;;;;;;;;;4821738;29;20062;-69
2022/06/13 00:28:10;;;;;;;18.02;6.70;;;;;;;;;;4786642;29;20062;-71
2022/06/13 00:30:42;;;;;;;17.27;6.95;;;;;;;;;;4809958;29;20170;-67
2022/06/13 00:33:13;;;;;;;12.63;5.80;;;;;;;;;;4840370;29;20414;-70
2022/06/13 00:35:43;;;;;;;17.67;8.43;;;;;;;;;;4824552;29;20050;-69
2022/06/13 00:38:14;;;;;;;20.65;8.18;;;;;;;;;;4840112;29;20057;-70
2022/06/13 00:40:44;;;;;;;19.42;8.95;;;;;;;;;;4794664;29;20084;-70
2022/06/13 00:43:17;;;;;;;20.98;9.77;;;;;;;;;;4840310;29;20050;-69
2022/06/13 00:45:47;;;;;;;19.08;8.77;;;;;;;;;;4843347;29;20070;-70
2022/06/13 00:48:23;;;;;;;16.15;8.05;;;;;;;;;;4831787;29;20053;-70
2022/06/13 00:50:59;;;;;;;20.45;7.80;;;;;;;;;;4847900;29;20083;-69
2022/06/13 00:53:33;;;;;;;20.08;8.02;;;;;;;;;;4876807;29;20056;-70
2022/06/13 00:56:17;;;;;;;17.77;8.00;;;;;;;;;;4847411;29;20541;-70
2022/06/13 00:58:57;;;;;;;19.35;8.73;;;;;;;;;;4876763;29;20065;-70
2022/06/13 01:01:31;;;;;;;18.65;9.60;;;;;;;;;;4876737;29;20064;-70
2022/06/13 01:04:07;;;;;;;26.98;12.30;;;;;;;;;;4876772;29;20060;-70
2022/06/13 01:06:42;;;;;;;23.85;9.77;;;;;;;;;;4876747;29;20057;-70
2022/06/13 01:09:16;;;;;;;22.25;9.60;;;;;;;;;;4876316;29;20073;-70
2022/06/13 01:11:52;;;;;;;19.42;9.38;;;;;;;;;;4830570;29;20176;-71
2022/06/13 01:14:34;;;;;;;19.77;9.20;;;;;;;;;;4845691;29;20529;-69
2022/06/13 01:17:30;;;;;;;15.90;8.18;;;;;;;;;;4830843;29;20402;-69
2022/06/13 01:20:35;;;;;;;19.85;8.48;;;;;;;;;;4876566;29;20064;-69
2022/06/13 01:23:46;;;;;;;15.32;7.38;;;;;;;;;;4821242;29;20070;-69
2022/06/13 01:26:55;;;;;;;19.55;8.15;;;;;;;;;;4821244;29;20054;-72
2022/06/13 01:29:52;;;;;;;14.68;8.00;;;;;;;;;;4821041;29;20062;-68
2022/06/13 01:32:41;;;;;;;17.80;8.13;;;;;;;;;;4820983;29;20058;-67
2022/06/13 01:35:26;;;;;;;14.88;6.85;;;;;;;;;;4820993;29;20057;-69
2022/06/13 01:38:14;;;;;;;14.30;7.28;;;;;;;;;;4820556;29;20047;-68
2022/06/13 01:41:04;;;;;;;16.17;8.27;;;;;;;;;;4790816;29;20121;-71
2022/06/13 01:44:24;;;;;;;13.65;6.57;;;;;;;;;;4790924;29;20054;-70
2022/06/13 01:47:06;;;;;;;13.05;5.97;;;;;;;;;;4805988;29;20431;-68
2022/06/13 01:49:51;;;;;;;14.32;6.50;;;;;;;;;;4820790;29;20116;-69
2022/06/13 01:52:36;;;;;;;25.65;7.97;;;;;;;;;;4820852;29;20495;-69
2022/06/13 01:55:45;;;;;;;15.25;6.30;;;;;;;;;;4820959;29;20058;-69
2022/06/13 01:58:47;;;;;;;13.18;6.28;;;;;;;;;;4802288;29;20615;-70
2022/06/13 02:01:38;;;;;;;13.07;6.55;;;;;;;;;;4723841;30;20064;-68
2022/06/13 02:04:18;;;;;;;14.45;6.78;;;;;;;;;;4748787;30;20083;-70
2022/06/13 02:06:58;;;;;;;16.13;6.85;;;;;;;;;;4734084;30;20075;-70
2022/06/13 02:09:32;;;;;;;13.30;6.72;;;;;;;;;;4748495;30;20060;-69
2022/06/13 02:12:05;;;;;;;13.15;6.82;;;;;;;;;;4748667;30;20071;-69
2022/06/13 02:14:37;;;;;;;15.05;6.25;;;;;;;;;;4733822;30;20417;-70
2022/06/13 02:17:16;;;;;;;12.52;5.82;;;;;;;;;;4762847;30;20052;-70
2022/06/13 02:19:54;;;;;;;13.48;7.22;;;;;;;;;;4763304;30;20087;-70
2022/06/13 02:22:33;;;;;;;13.02;6.07;;;;;;;;;;4748875;30;20083;-71
2022/06/13 02:25:06;;;;;;;13.88;6.38;;;;;;;;;;4748494;30;20068;-69
2022/06/13 02:27:38;;;;;;;15.15;7.03;;;;;;;;;;4730518;30;20045;-70
2022/06/13 02:30:18;;;;;;;14.52;6.43;;;;;;;;;;4730864;30;20057;-70
2022/06/13 02:33:19;;;;;;;13.43;6.50;;;;;;;;;;4731106;30;20068;-70
2022/06/13 02:36:02;;;;;;;15.45;6.75;;;;;;;;;;4748550;29;20061;-69
2022/06/13 02:38:58;;;;;;;18.33;7.93;;;;;;;;;;4801925;29;20104;-69
2022/06/13 02:41:36;;;;;;;14.57;7.03;;;;;;;;;;4801862;29;20067;-70
2022/06/13 02:44:31;;;;;;;15.98;6.90;;;;;;;;;;4802020;29;20055;-69
2022/06/13 02:47:09;;;;;;;17.63;7.45;;;;;;;;;;4801871;29;20066;-70
2022/06/13 02:49:49;;;;;;;17.50;6.88;;;;;;;;;;4806288;29;20047;-70
2022/06/13 02:52:33;;;;;;;15.18;6.55;;;;;;;;;;4805523;29;20069;-70
2022/06/13 02:55:07;;;;;;;10.73;5.25;;;;;;;;;;4778915;29;20141;-69
2022/06/13 02:58:05;;;;;;;15.15;6.00;;;;;;;;;;4823505;29;20065;-70
2022/06/13 03:00:52;;;;;;;13.07;6.53;;;;;;;;;;4823238;29;20054;-69
2022/06/13 03:03:43;;;;;;;11.75;5.57;;;;;;;;;;4823438;29;20073;-69
2022/06/13 03:06:27;;;;;;;12.45;5.80;;;;;;;;;;4803136;29;20054;-67
2022/06/13 03:09:15;;;;;;;15.65;5.53;;;;;;;;;;4825793;29;20054;-68
2022/06/13 03:11:57;;;;;;;15.27;6.85;;;;;;;;;;4807155;29;20057;-69
2022/06/13 03:14:56;;;;;;;14.43;7.78;;;;;;;;;;4878257;29;20064;-69
2022/06/13 03:17:48;;;;;;;15.25;7.22;;;;;;;;;;4863590;29;20049;-68
2022/06/13 03:20:28;;;;;;;12.95;6.50;;;;;;;;;;4899391;29;20095;-69
2022/06/13 03:23:07;;;;;;;12.98;6.63;;;;;;;;;;4841031;29;20065;-68
2022/06/13 03:25:49;;;;;;;13.90;6.53;;;;;;;;;;4827084;29;20078;-69
2022/06/13 03:28:23;;;;;;;15.07;6.18;;;;;;;;;;4841255;29;20061;-69
2022/06/13 03:31:05;;;;;;;14.05;6.38;;;;;;;;;;4825569;29;20088;-68
2022/06/13 03:33:42;;;;;;;10.35;5.53;;;;;;;;;;4810754;29;20545;-69
2022/06/13 03:36:34;;;;;;;13.45;6.18;;;;;;;;;;4841709;29;20066;-69
2022/06/13 03:39:28;;;;;;;10.57;5.70;;;;;;;;;;4810521;29;20557;-69
2022/06/13 03:42:33;;;;;;;9.57;4.47;;;;;;;;;;4841187;29;20629;-67
2022/06/13 03:45:25;;;;;;;10.32;4.88;;;;;;;;;;4754301;30;20060;-69
2022/06/13 03:47:58;;;;;;;11.57;5.65;;;;;;;;;;4768895;30;20064;-69
2022/06/13 03:50:42;;;;;;;12.20;5.35;;;;;;;;;;4768963;30;20051;-70
2022/06/13 03:53:30;;;;;;;13.90;5.63;;;;;;;;;;4768839;30;20071;-69
2022/06/13 03:56:14;;;;;;;14.00;5.45;;;;;;;;;;4736305;30;20457;-70
2022/06/13 03:58:58;;;;;;;11.30;6.15;;;;;;;;;;4750728;30;20560;-69
2022/06/13 04:01:34;;;;;;;12.27;6.03;;;;;;;;;;4765552;30;20060;-69
2022/06/13 04:04:10;;;;;;;13.30;6.75;;;;;;;;;;4753908;30;20066;-69
2022/06/13 04:06:42;;;;;;;15.57;7.10;;;;;;;;;;4768673;30;20151;-69
2022/06/13 04:09:23;;;;;;;17.30;7.00;;;;;;;;;;4754766;30;20064;-68
2022/06/13 04:11:57;;;;;;;10.85;5.72;;;;;;;;;;4732908;30;20057;-68
2022/06/13 04:14:39;;;;;;;12.63;5.28;;;;;;;;;;4747511;30;20431;-69
2022/06/13 04:17:21;;;;;;;17.45;6.72;;;;;;;;;;4733258;30;20073;-69
2022/06/13 04:20:16;;;;;;;15.20;6.45;;;;;;;;;;4750388;30;20052;-69
2022/06/13 04:22:56;;;;;;;13.43;6.47;;;;;;;;;;4803673;29;20058;-69
2022/06/13 04:26:14;;;;;;;14.15;6.53;;;;;;;;;;4774151;29;20056;-69
2022/06/13 04:28:56;;;;;;;14.70;6.25;;;;;;;;;;4803579;29;20058;-69
2022/06/13 04:31:29;;;;;;;13.27;6.03;;;;;;;;;;4759005;29;20055;-70
2022/06/13 04:34:15;;;;;;;17.15;6.97;;;;;;;;;;4804002;29;20059;-69
2022/06/13 04:36:46;;;;;;;;;;;;;;;;;;4789350;29;20058;-69
2022/06/13 04:39:21;;;;;;;16.15;6.25;;;;;;;;;;4804051;29;19925;-69
2022/06/13 04:41:55;;;;;;;16.98;7.30;;;;;;;;;;4803732;29;20071;-69
2022/06/13 04:44:29;;;;;;;15.45;6.85;;;;;;;;;;4803459;29;20051;-69
2022/06/13 04:47:02;;;;;;;11.57;5.68;;;;;;;;;;4803609;29;20066;-69
2022/06/13 04:49:57;;;;;;;10.95;5.57;;;;;;;;;;4794697;29;20071;-71
2022/06/13 04:52:31;;;;;;;11.60;5.72;;;;;;;;;;4767657;30;20060;-69
2022/06/13 04:55:17;;;;;;;14.27;5.93;;;;;;;;;;4785334;30;20056;-69
2022/06/13 04:57:48;;;;;;;11.80;5.03;;;;;;;;;;4773796;30;20461;-69
2022/06/13 05:00:19;;;;;;;9.25;5.65;;;;;;;;;;4783293;29;20066;-69
2022/06/13 05:02:53;;;;;;;12.32;5.07;;;;;;;;;;4803138;29;20070;-69
2022/06/13 05:05:46;;;;;;;12.60;4.97;;;;;;;;;;4772255;29;20068;-69
2022/06/13 05:08:26;;;;;;;13.15;6.78;;;;;;;;;;4767337;30;20064;-67
2022/06/13 05:11:12;;;;;;;11.48;6.00;;;;;;;;;;4753295;30;20071;-67
2022/06/13 05:13:42;;;;;;;13.45;5.20;;;;;;;;;;4767486;30;20428;-67
2022/06/13 05:16:37;;;;;;;11.23;5.13;;;;;;;;;;4767532;30;20071;-68
2022/06/13 05:19:40;;;;;;;11.27;5.45;;;;;;;;;;4783424;30;20055;-68
2022/06/13 05:22:16;;;;;;;11.00;5.32;;;;;;;;;;4749742;30;20063;-68
2022/06/13 05:25:12;;;;;;;8.63;4.10;;;;;;;;;;4749554;30;20076;-69
2022/06/13 05:27:43;;;;;;;10.23;4.88;;;;;;;;;;4731757;30;20057;-66
2022/06/13 05:30:15;;;;;;;10.23;4.40;;;;;;;;;;4758009;30;20060;-67
2022/06/13 05:32:45;;;;;;;10.10;3.50;;;;;;;;;;4761819;30;20424;-67
2022/06/13 05:35:29;;;;;;;10.55;4.63;;;;;;;;;;4784865;30;20162;-67
2022/06/13 05:38:02;;;;;;;8.32;4.30;;;;;;;;;;4794747;29;20073;-67
2022/06/13 05:40:32;;;;;;;10.52;5.28;;;;;;;;;;4802894;29;20050;-68
2022/06/13 05:43:02;;;;;;;10.55;4.93;;;;;;;;;;4802888;29;20081;-67
2022/06/13 05:45:33;;;;;;;10.95;5.60;;;;;;;;;;4802720;29;20059;-67
2022/06/13 05:48:04;;;;;;;11.45;5.57;;;;;;;;;;4772503;29;20070;-68
2022/06/13 05:50:35;;;;;;;9.88;4.68;;;;;;;;;;4803077;29;20069;-67
2022/06/13 05:53:05;;;;;;;11.70;5.22;;;;;;;;;;4810277;29;20062;-68
2022/06/13 05:55:36;;;;;;;12.27;5.18;;;;;;;;;;4820865;29;20054;-67
2022/06/13 05:58:06;;;;;;;11.00;5.32;;;;;;;;;;4820724;29;20066;-68
2022/06/13 06:00:44;;;;;;;13.05;5.45;;;;;;;;;;4820782;29;20514;-67
2022/06/13 06:03:14;;;;;;;12.65;4.88;;;;;;;;;;4820885;29;20058;-67
2022/06/13 06:05:45;;;;;;;10.07;4.90;;;;;;;;;;4869754;29;20061;-68
2022/06/13 06:08:25;;;;;;;10.73;4.78;;;;;;;;;;4875842;29;20048;-67
2022/06/13 06:10:57;;;;;;;10.82;5.50;;;;;;;;;;4875903;29;20053;-67
2022/06/13 06:13:29;;;;;;;11.32;4.65;;;;;;;;;;4875709;29;20399;-67
2022/06/13 06:16:01;;;;;;;11.55;5.72;;;;;;;;;;4838721;29;20060;-67
2022/06/13 06:18:33;;;;;;;13.82;5.88;;;;;;;;;;4823574;29;20046;-67
2022/06/13 06:21:03;;;;;;;13.30;5.88;;;;;;;;;;4838521;29;20073;-67
2022/06/13 06:23:35;;;;;;;10.50;5.50;;;;;;;;;;4838411;29;20057;-66
2022/06/13 06:26:06;;;;;;;10.45;5.07;;;;;;;;;;4805466;29;20592;-67
2022/06/13 06:28:37;;;;;;;10.68;5.30;;;;;;;;;;4838218;29;20065;-66
2022/06/13 06:31:07;;;;;;;10.73;5.13;;;;;;;;;;4808747;29;20058;-67
2022/06/13 06:33:38;;;;;;;11.25;5.50;;;;;;;;;;4838612;29;20062;-67
2022/06/13 06:36:12;;;;;;;8.98;4.78;;;;;;;;;;4838681;29;20069;-67
2022/06/13 06:38:43;;;;;;;10.05;4.32;;;;;;;;;;4838247;29;20054;-66
2022/06/13 06:41:14;;;;;;;8.63;4.55;;;;;;;;;;4838599;29;20507;-67
2022/06/13 06:43:44;;;;;;;6.72;3.63;;;;;;;;;;4838389;29;20071;-67
2022/06/13 06:46:15;;;;;;;7.53;3.80;;;;;;;;;;4838405;29;20070;-67
2022/06/13 06:48:46;;;;;;;9.88;4.20;;;;;;;;;;4793771;29;20058;-68
2022/06/13 06:51:16;;;;;;;8.88;4.20;;;;;;;;;;4838514;29;20062;-67
2022/06/13 07:02:12;;;;;;;11.32;4.60;;;;;;;;;;4875250;29;20155;-67
2022/06/13 07:04:43;;;;;;;10.27;4.20;;;;;;;;;;4874956;29;20053;-66
2022/06/13 07:07:13;;;;;;;11.43;5.32;;;;;;;;;;4874987;29;20049;-68
2022/06/13 07:09:42;;;;;;;17.00;6.88;;;;;;;;;;4859965;29;20084;-67
2022/06/13 07:12:13;;;;;;;15.98;6.88;;;;;;;;;;4875177;29;20057;-67
2022/06/13 07:14:44;;;;;;;14.30;5.13;;;;;;;;;;4875106;29;20421;-67
2022/06/13 07:17:15;;;;;;;14.65;5.60;;;;;;;;;;4875121;29;20068;-68
2022/06/13 07:19:45;;;;;;;12.60;4.63;;;;;;;;;;4874872;29;20053;-67
2022/06/13 07:22:19;;;;;;;11.38;4.45;;;;;;;;;;4875202;29;20068;-67
2022/06/13 07:24:51;;;;;;;9.88;4.25;;;;;;;;;;4875130;29;20060;-67
2022/06/13 07:27:22;;;;;;;9.80;4.30;;;;;;;;;;4844919;29;20110;-67
2022/06/13 07:29:52;;;;;;;9.20;4.30;;;;;;;;;;4859654;29;20065;-67
2022/06/13 07:32:25;;;;;;;13.27;4.72;;;;;;;;;;4840861;29;20058;-67
2022/06/13 07:34:56;;;;;;;9.38;5.65;;;;;;;;;;4857528;29;20062;-67
2022/06/13 07:40:16;;;;;;;9.68;4.03;;;;;;;;;;4828843;29;20081;-67
2022/06/13 07:42:52;;;;;;;9.40;4.57;;;;;;;;;;4847182;29;20080;-68
2022/06/13 07:45:26;;;;;;;6.93;3.55;;;;;;;;;;4841226;29;20062;-67
2022/06/13 07:48:16;;;;;;;8.43;3.65;;;;;;;;;;4841205;29;20049;-67
2022/06/13 07:50:47;;;;;;;10.60;5.55;;;;;;;;;;4822362;29;20058;-68
2022/06/13 07:53:17;;;;;;;8.48;3.75;;;;;;;;;;4804453;29;20052;-68
2022/06/13 07:56:10;;;;;;;9.73;4.40;;;;;;;;;;4804668;29;20530;-67
2022/06/13 07:58:42;;;;;;;6.82;3.80;;;;;;;;;;4786156;30;20059;-68
2022/06/13 08:01:13;;;;;;;7.95;3.92;;;;;;;;;;4786543;30;20066;-68
2022/06/13 08:03:44;;;;;;;10.02;3.88;;;;;;;;;;4757465;30;20527;-68
2022/06/13 08:06:14;;;;;;;10.05;4.57;;;;;;;;;;4741957;30;20523;-66
2022/06/13 08:08:46;;;;;;;8.18;4.47;;;;;;;;;;4742017;30;20064;-68
2022/06/13 08:11:22;;;;;;;9.95;3.97;;;;;;;;;;4756708;30;20078;-68
2022/06/13 08:13:53;;;;;;;9.35;4.03;;;;;;;;;;4801175;29;20095;-68
2022/06/13 08:16:23;;;;;;;7.85;4.20;;;;;;;;;;4786233;30;20067;-69
2022/06/13 08:18:56;;;;;;;8.43;4.10;;;;;;;;;;4786132;30;20055;-68
2022/06/13 08:21:26;;;;;;;;;;;;;;;;;;4787023;30;20070;-69
2022/06/13 08:23:56;;;;;;;7.03;3.63;;;;;;;;;;4764486;30;19926;-68
2022/06/13 08:26:32;;;;;;;9.65;5.47;;;;;;;;;;4767818;30;20064;-69
2022/06/13 08:29:03;;;;;;;7.32;3.40;;;;;;;;;;4781673;30;20070;-69
2022/06/13 08:31:35;;;;;;;9.02;4.40;;;;;;;;;;4763504;30;20062;-68
2022/06/13 08:34:07;;;;;;;6.95;3.10;;;;;;;;;;4768342;30;20402;-69
2022/06/13 08:36:37;;;;;;;11.48;5.03;;;;;;;;;;4768013;30;20129;-68
2022/06/13 08:39:07;;;;;;;9.10;4.03;;;;;;;;;;4768247;30;20068;-69
2022/06/13 08:41:43;;;;;;;12.50;11.20;;;;;;;;;;4768081;30;20071;-68
2022/06/13 08:44:19;;;;;;;10.98;4.82;;;;;;;;;;4768073;30;20059;-69
2022/06/13 08:47:16;;;;;;;8.32;3.28;;;;;;;;;;4767524;30;20612;-68
2022/06/13 08:49:52;;;;;;;8.93;3.70;;;;;;;;;;4767787;30;20063;-68
2022/06/13 08:52:31;;;;;;;10.50;4.32;;;;;;;;;;4767472;30;20071;-68
2022/06/13 08:55:41;;;;;;;7.95;3.63;;;;;;;;;;4749831;30;20063;-69
2022/06/13 08:58:19;;;;;;;12.35;4.32;;;;;;;;;;4700317;30;20065;-68
2022/06/13 09:01:00;;;;;;;9.10;4.05;;;;;;;;;;4711453;30;20079;-68
2022/06/13 09:03:56;;;;;;;9.38;3.50;;;;;;;;;;4701140;30;20057;-68
2022/06/13 09:06:53;;;;;;;6.28;3.42;;;;;;;;;;4732111;30;20529;-67
2022/06/13 09:09:41;;;;;;;8.23;3.08;;;;;;;;;;4742259;30;20429;-68
2022/06/13 09:12:32;;;;;;;8.85;4.22;;;;;;;;;;4763052;30;20060;-68
2022/06/13 09:15:10;;;;;;;7.50;3.55;;;;;;;;;;4749660;30;20064;-68
2022/06/13 09:17:52;;;;;;;8.70;3.13;;;;;;;;;;4749657;30;20414;-69
2022/06/13 09:21:08;;;;;;;10.85;4.53;;;;;;;;;;4749561;30;20060;-68
2022/06/13 09:24:08;;;;;;;7.85;3.30;;;;;;;;;;4679746;30;20447;-68
2022/06/13 09:27:03;;;;;;;5.93;3.22;;;;;;;;;;5171616;27;20201;-67
2022/06/13 09:29:43;;;;;;;8.93;3.95;;;;;;;;;;5110742;28;20070;-67
2022/06/13 09:32:54;;;;;;;7.68;3.63;;;;;;;;;;5127980;28;20059;-68
2022/06/13 09:35:31;;;;;;;8.82;3.97;;;;;;;;;;5127497;28;20059;-67
2022/06/13 09:38:15;;;;;;;9.27;3.72;;;;;;;;;;5082038;28;20058;-67
2022/06/13 09:41:02;;;;;;;16.10;5.80;;;;;;;;;;5093759;28;20495;-68
2022/06/13 09:43:40;;;;;;;15.88;6.75;;;;;;;;;;5110704;28;20146;-68
2022/06/13 09:46:16;;;;;;;12.60;5.38;;;;;;;;;;5093569;28;20063;-68
2022/06/13 09:49:05;;;;;;;11.75;4.65;;;;;;;;;;5127298;28;20418;-67
2022/06/13 09:51:45;;;;;;;8.18;3.42;;;;;;;;;;5109840;28;20051;-67
2022/06/13 09:54:59;;;;;;;7.90;3.78;;;;;;;;;;5127242;28;20055;-68
2022/06/13 09:57:44;;;;;;;10.02;3.28;;;;;;;;;;5045765;28;20061;-68
2022/06/13 10:00:41;;;;;;;7.38;3.53;;;;;;;;;;5043581;28;20054;-68
2022/06/13 10:03:32;;;;;;;6.93;3.30;;;;;;;;;;5040500;28;20512;-68
2022/06/13 10:06:26;;;;;;;9.25;4.30;;;;;;;;;;4974979;28;20054;-69
2022/06/13 10:09:21;;;;;;;11.52;3.92;;;;;;;;;;5001847;28;20054;-68
2022/06/13 10:12:20;;;;;;;8.18;3.55;;;;;;;;;;4986659;28;20671;-67
2022/06/13 10:15:22;;;;;;;11.23;3.40;;;;;;;;;;4986729;28;20057;-66
2022/06/13 10:18:03;;;;;;;8.50;2.85;;;;;;;;;;4986222;28;20051;-70
2022/06/13 10:20:38;;;;;;;9.93;5.20;;;;;;;;;;4971210;28;20057;-68
2022/06/13 10:23:27;;;;;;;9.00;3.05;;;;;;;;;;4998825;28;20061;-66
2022/06/13 10:26:38;;;;;;;11.90;3.83;;;;;;;;;;5005340;28;20050;-66
2022/06/13 10:29:22;;;;;;;7.95;3.55;;;;;;;;;;5006025;28;20065;-67
2022/06/13 10:32:11;;;;;;;11.23;4.07;;;;;;;;;;4975024;28;20063;-67
2022/06/13 10:34:47;;;;;;;7.68;3.90;;;;;;;;;;5008576;28;20485;-68
2022/06/13 10:37:19;;;;;;;10.68;4.03;;;;;;;;;;5017902;28;20390;-66
2022/06/13 10:39:54;;;;;;;8.07;3.55;;;;;;;;;;5030782;28;20042;-65
2022/06/13 10:42:29;;;;;;;12.48;5.00;;;;;;;;;;5031759;28;20073;-66
2022/06/13 10:44:59;;;;;;;10.60;4.47;;;;;;;;;;5067594;28;20547;-66
2022/06/13 10:47:37;;;;;;;9.93;3.72;;;;;;;;;;5071798;28;20048;-66
2022/06/13 10:50:21;;;;;;;12.57;4.25;;;;;;;;;;5054879;28;20059;-66
2022/06/13 10:52:56;;;;;;;10.95;4.68;;;;;;;;;;5071806;28;20122;-67
2022/06/13 10:55:30;;;;;;;9.15;4.30;;;;;;;;;;5031311;28;20572;-66
2022/06/13 10:58:06;;;;;;;11.68;4.43;;;;;;;;;;5031479;28;20057;-66
2022/06/13 11:00:37;;;;;;;14.10;6.10;;;;;;;;;;5008671;28;20040;-66
2022/06/13 11:03:14;;;;;;;14.70;5.20;;;;;;;;;;5051457;28;20060;-66
2022/06/13 11:06:05;;;;;;;11.38;5.18;;;;;;;;;;5002358;28;20049;-66
2022/06/13 11:08:36;;;;;;;10.75;4.95;;;;;;;;;;5011127;28;20042;-66
2022/06/13 11:11:15;;;;;;;13.38;4.82;;;;;;;;;;4979124;28;20101;-66
2022/06/13 11:13:52;;;;;;;;;;;;;;;;;;4979474;28;20054;-66
2022/06/13 11:22:37;;;;;;;12.23;5.32;;;;;;;;;;5011495;28;20050;-66
2022/06/13 11:22:45;;;;;;;19.70;7.30;;;;;;;;;;5028436;28;20053;-66
2022/06/13 11:25:23;;;;;;;22.52;8.70;;;;;;;;;;5030771;28;20042;-66
2022/06/13 11:28:27;;;;;;;25.67;9.38;;;;;;;;;;5015032;28;20425;-67
2022/06/13 11:31:18;;;;;;;30.52;10.10;;;;;;;;;;4930597;28;20043;-68
2022/06/13 11:33:48;;;;;;;19.63;8.88;;;;;;;;;;4975090;28;20577;-66
2022/06/13 11:36:28;;;;;;;15.15;6.88;;;;;;;;;;4993695;28;20060;-66
2022/06/13 11:39:03;;;;;;;14.75;6.65;;;;;;;;;;5008344;28;20054;-69
2022/06/13 11:41:46;;;;;;;15.32;7.28;;;;;;;;;;5011059;28;20054;-68
2022/06/13 11:44:19;;;;;;;13.52;5.32;;;;;;;;;;5011023;28;20093;-69
2022/06/13 11:46:53;;;;;;;14.18;5.22;;;;;;;;;;5054781;28;20402;-69
2022/06/13 11:49:24;;;;;;;12.40;5.82;;;;;;;;;;5009904;28;20045;-70
2022/06/13 11:51:57;;;;;;;13.48;5.47;;;;;;;;;;4994296;28;20084;-70
2022/06/13 11:54:33;;;;;;;13.02;5.85;;;;;;;;;;4971607;28;20058;-70
2022/06/13 11:57:16;;;;;;;17.25;7.07;;;;;;;;;;4956383;28;20088;-70
2022/06/13 12:00:06;;;;;;;15.68;6.95;;;;;;;;;;4971744;28;20514;-70
2022/06/13 12:02:41;;;;;;;13.45;6.57;;;;;;;;;;4932855;29;20416;-70
2022/06/13 12:05:22;;;;;;;21.02;8.15;;;;;;;;;;4933115;29;20056;-70
2022/06/13 12:08:05;;;;;;;20.10;9.85;;;;;;;;;;4959648;28;20435;-70
2022/06/13 12:10:39;;;;;;;26.67;12.90;;;;;;;;;;4955634;28;20062;-69
2022/06/13 12:13:16;;;;;;;24.67;11.88;;;;;;;;;;4951829;29;20055;-69
2022/06/13 12:15:53;;;;;;;30.38;13.60;;;;;;;;;;4932850;29;20412;-68
2022/06/13 12:18:56;;;;;;;31.02;13.65;;;;;;;;;;4932847;29;20128;-68
2022/06/13 12:21:38;;;;;;;26.23;9.48;;;;;;;;;;4920422;29;20063;-69
2022/06/13 12:24:14;;;;;;;21.35;10.13;;;;;;;;;;4932738;29;20412;-71
2022/06/13 12:27:19;;;;;;;28.08;13.20;;;;;;;;;;4991304;28;21226;-70
2022/06/13 12:29:56;;;;;;;35.70;13.57;;;;;;;;;;4970804;28;20070;-71
2022/06/13 12:32:41;;;;;;;38.40;14.38;;;;;;;;;;4971094;28;20054;-71
2022/06/13 12:35:38;;;;;;;35.95;16.60;;;;;;;;;;4971184;28;20051;-71
2022/06/13 12:38:24;;;;;;;25.73;10.80;;;;;;;;;;4955297;28;20066;-70
2022/06/13 12:41:28;;;;;;;28.67;13.60;;;;;;;;;;4985975;28;20054;-70
2022/06/13 12:44:02;;;;;;;24.83;11.10;;;;;;;;;;4990270;28;20062;-70
2022/06/13 12:47:06;;;;;;;24.80;10.88;;;;;;;;;;4942035;28;20058;-69
2022/06/13 12:50:05;;;;;;;27.17;11.73;;;;;;;;;;4990320;28;20054;-69
2022/06/13 12:52:54;;;;;;;31.88;14.25;;;;;;;;;;4993654;28;20054;-69
2022/06/13 12:55:47;;;;;;;29.83;13.93;;;;;;;;;;5011514;28;20050;-69
2022/06/13 12:58:32;;;;;;;33.92;11.27;;;;;;;;;;4980377;28;20042;-68
2022/06/13 13:01:12;;;;;;;21.38;9.98;;;;;;;;;;4988345;28;20058;-67
2022/06/13 13:04:14;;;;;;;21.15;9.38;;;;;;;;;;4989516;28;20461;-67
2022/06/13 13:07:04;;;;;;;26.13;11.38;;;;;;;;;;5027956;28;20131;-69
2022/06/13 13:10:11;;;;;;;19.48;8.20;;;;;;;;;;5069074;28;20464;-68
2022/06/13 13:12:56;;;;;;;19.58;9.98;;;;;;;;;;5069182;28;20048;-68
2022/06/13 13:15:36;;;;;;;12.65;6.00;;;;;;;;;;5029008;28;20049;-68
2022/06/13 13:18:18;;;;;;;25.80;9.07;;;;;;;;;;5029087;28;20062;-68
2022/06/13 13:21:14;;;;;;;19.08;7.45;;;;;;;;;;5029309;28;20046;-69
2022/06/13 13:24:02;;;;;;;24.33;10.63;;;;;;;;;;4996390;28;20050;-68
2022/06/13 13:26:57;;;;;;;25.77;11.70;;;;;;;;;;5029452;28;20485;-69
2022/06/13 13:29:47;;;;;;;22.20;9.18;;;;;;;;;;5030810;28;20153;-68
2022/06/13 13:32:20;;;;;;;18.88;10.05;;;;;;;;;;5049095;28;20044;-69
2022/06/13 13:35:15;;;;;;;12.60;6.20;;;;;;;;;;5025423;28;20056;-68
2022/06/13 13:37:56;;;;;;;16.27;7.60;;;;;;;;;;5050258;28;20056;-68
2022/06/13 13:40:28;;;;;;;30.95;10.18;;;;;;;;;;5068895;28;20049;-68
2022/06/13 13:43:05;;;;;;;;;;;;;;;;;;5069452;28;20047;-68
2022/06/13 13:46:10;;;;;;;13.20;5.85;;;;;;;;;;5069027;28;19928;-69
2022/06/13 13:48:44;;;;;;;9.55;5.40;;;;;;;;;;5068800;28;20049;-68
2022/06/13 13:51:26;;;;;;;16.75;6.75;;;;;;;;;;5068859;28;20052;-69
2022/06/13 13:54:26;;;;;;;15.82;7.95;;;;;;;;;;5104856;28;20055;-70
2022/06/13 13:57:14;;;;;;;11.48;5.13;;;;;;;;;;5111573;28;20047;-67
2022/06/13 13:59:51;;;;;;;19.48;8.20;;;;;;;;;;5111486;28;20380;-66
2022/06/13 14:02:46;;;;;;;11.55;5.20;;;;;;;;;;5060562;28;20058;-68
2022/06/13 14:05:34;;;;;;;17.02;7.57;;;;;;;;;;5111473;28;20043;-70
2022/06/13 14:08:36;;;;;;;18.70;8.40;;;;;;;;;;5113583;28;20040;-71
2022/06/13 14:11:10;;;;;;;18.05;7.15;;;;;;;;;;5030919;28;20056;-69
2022/06/13 14:13:46;;;;;;;15.05;7.13;;;;;;;;;;5035836;28;20112;-70
2022/06/13 14:16:25;;;;;;;18.52;7.55;;;;;;;;;;5034275;28;20045;-69
2022/06/13 14:19:11;;;;;;;15.02;6.05;;;;;;;;;;5052324;28;20452;-69
2022/06/13 14:21:44;;;;;;;11.07;5.07;;;;;;;;;;5046929;28;20056;-71
2022/06/13 14:24:19;;;;;;;18.08;9.18;;;;;;;;;;5051017;28;20123;-69
2022/06/13 14:26:54;;;;;;;21.35;9.90;;;;;;;;;;5052139;28;20053;-70
2022/06/13 14:29:37;;;;;;;13.00;6.93;;;;;;;;;;5052335;28;20053;-69
2022/06/13 14:32:28;;;;;;;22.25;9.25;;;;;;;;;;5021039;28;20064;-69
2022/06/13 14:35:15;;;;;;;19.92;10.65;;;;;;;;;;5051458;28;20057;-70
2022/06/13 14:37:46;;;;;;;24.40;9.68;;;;;;;;;;5049035;28;20044;-70
2022/06/13 14:40:52;;;;;;;13.82;8.05;;;;;;;;;;5035939;28;20158;-69
2022/06/13 14:43:57;;;;;;;19.15;9.68;;;;;;;;;;4999179;28;20049;-70
2022/06/13 14:46:41;;;;;;;20.90;10.35;;;;;;;;;;4968800;28;20050;-69
2022/06/13 14:49:35;;;;;;;20.42;9.57;;;;;;;;;;4922330;29;20051;-71
2022/06/13 14:52:20;;;;;;;11.57;6.45;;;;;;;;;;4936779;29;20156;-71
2022/06/13 14:55:15;;;;;;;17.98;7.95;;;;;;;;;;4954037;29;20495;-70
2022/06/13 14:57:48;;;;;;;18.08;8.82;;;;;;;;;;4965187;28;20426;-71
2022/06/13 15:00:30;;;;;;;24.88;11.48;;;;;;;;;;4976373;28;20054;-72
2022/06/13 15:03:04;;;;;;;18.65;8.95;;;;;;;;;;4961068;28;20050;-72
2022/06/13 15:05:49;;;;;;;15.93;8.63;;;;;;;;;;4991414;28;20097;-72
2022/06/13 15:08:42;;;;;;;12.15;5.70;;;;;;;;;;4957993;28;20051;-73
2022/06/13 15:11:15;;;;;;;21.48;10.95;;;;;;;;;;4934107;29;20078;-71
2022/06/13 15:13:46;;;;;;;13.43;7.65;;;;;;;;;;4934327;29;20067;-71
2022/06/13 15:16:17;;;;;;;17.38;9.35;;;;;;;;;;4934235;29;20455;-72
2022/06/13 15:18:59;;;;;;;15.95;9.02;;;;;;;;;;4934146;29;20563;-72
2022/06/13 15:21:34;;;;;;;16.30;8.10;;;;;;;;;;4933959;29;20056;-72
2022/06/13 15:24:10;;;;;;;19.10;9.13;;;;;;;;;;4946661;28;20058;-74
2022/06/13 15:26:45;;;;;;;14.77;7.28;;;;;;;;;;4971979;28;20550;-71
2022/06/13 15:29:24;;;;;;;20.05;8.23;;;;;;;;;;4955998;28;20526;-74
2022/06/13 15:32:16;;;;;;;19.25;9.93;;;;;;;;;;4956699;28;20054;-75
2022/06/13 15:35:01;;;;;;;15.70;8.00;;;;;;;;;;4972006;28;20415;-75
2022/06/13 15:37:39;;;;;;;13.18;7.65;;;;;;;;;;4972151;28;20055;-75
2022/06/13 15:40:21;;;;;;;16.95;7.78;;;;;;;;;;4972424;28;20084;-75
2022/06/13 15:42:52;;;;;;;14.20;6.22;;;;;;;;;;4972011;28;20077;-72
2022/06/13 15:45:32;;;;;;;14.43;8.30;;;;;;;;;;4972367;28;20061;-73
2022/06/13 15:48:06;;;;;;;11.60;5.75;;;;;;;;;;5010039;28;20047;-74
2022/06/13 15:50:36;;;;;;;13.25;6.53;;;;;;;;;;5113597;28;20513;-75
2022/06/13 15:53:25;;;;;;;14.32;7.53;;;;;;;;;;5095845;28;20483;-74
2022/06/13 15:55:56;;;;;;;12.82;5.70;;;;;;;;;;5094458;28;20052;-74
2022/06/13 15:58:29;;;;;;;13.77;6.50;;;;;;;;;;5070126;28;20534;-73
2022/06/13 16:00:59;;;;;;;10.98;4.82;;;;;;;;;;5070438;28;20049;-73
2022/06/13 16:03:29;;;;;;;10.27;4.82;;;;;;;;;;5030183;28;20052;-74
2022/06/13 16:06:02;;;;;;;15.82;6.22;;;;;;;;;;5014381;28;20087;-71
2022/06/13 16:08:35;;;;;;;12.50;5.03;;;;;;;;;;4986636;28;20050;-73